Time;durP1;ratioP1;P1;durP2;ratioP2;P2;SDS_P1;SDS_P2;PMS_P1;PMS_P2;Temp;Humidity;BMP_temperature;BMP_pressure;BME280_temperature;BME280_humidity;BME280_pressure;Samples;Min_cycle;Max_cycle;Signal;HPM_P1;HPM_P2
2023/12/15 00:01:27;;;;;;;26.45;8.18;;;;;;;-145.63;59.27;38989.03;5025975;28;20329;-63
2023/12/15 00:03:52;;;;;;;23.00;7.03;;;;;;;-145.63;60.36;38961.66;5044967;28;20230;-63
2023/12/15 00:06:18;;;;;;;22.02;7.40;;;;;;;-145.63;60.07;38989.03;5045471;28;20029;-64
2023/12/15 00:08:44;;;;;;;29.15;7.32;;;;;;;-145.63;59.65;39010.56;5045373;28;20334;-64
2023/12/15 00:11:10;;;;;;;27.58;7.47;;;;;;;-145.63;60.12;38987.09;5039811;28;20048;-64
2023/12/15 00:13:35;;;;;;;27.33;8.00;;;;;;;-145.63;59.82;38985.13;5026359;28;20514;-64
2023/12/15 00:16:01;;;;;;;30.27;8.25;;;;;;;-145.63;60.03;39006.66;5045147;28;20029;-64
2023/12/15 00:18:27;;;;;;;22.30;7.13;;;;;;;-145.63;60.03;38992.97;5029201;28;20025;-64
2023/12/15 00:20:52;;;;;;;25.63;7.38;;;;;;;-145.63;60.42;38998.81;5041316;28;20029;-64
2023/12/15 00:23:18;;;;;;;26.50;7.57;;;;;;;-145.63;60.70;39022.28;5045019;28;20029;-64
2023/12/15 00:25:44;;;;;;;29.98;7.80;;;;;;;-145.63;60.67;39016.44;5043910;28;20018;-64
2023/12/15 00:28:09;;;;;;;31.70;7.85;;;;;;;-145.63;60.69;38989.03;5045016;28;20079;-64
2023/12/15 00:30:35;;;;;;;28.15;8.00;;;;;;;-145.63;61.19;39004.69;5027957;28;20338;-64
2023/12/15 00:33:01;;;;;;;20.15;7.43;;;;;;;-145.63;60.44;38554.94;5037474;28;20029;-63
2023/12/15 00:35:26;;;;;;;28.88;7.70;;;;;;;-145.63;60.68;39016.44;5037340;28;20038;-63
2023/12/15 00:37:52;;;;;;;26.92;7.32;;;;;;;-145.63;60.67;39008.59;5027990;28;20099;-63
2023/12/15 00:40:18;;;;;;;25.20;6.90;;;;;;;-145.63;60.65;38998.81;5044577;28;20390;-63
2023/12/15 00:42:44;;;;;;;29.42;8.18;;;;;;;-145.63;60.63;38989.03;5026703;28;20072;-63
2023/12/15 00:45:10;;;;;;;28.92;7.95;;;;;;;-145.63;60.57;38992.97;5037724;28;20021;-62
2023/12/15 00:47:36;;;;;;;29.10;7.07;;;;;;;-145.63;60.59;38963.63;5044412;28;20021;-62
2023/12/15 00:50:03;;;;;;;32.75;8.23;;;;;;;-145.63;60.54;39010.56;5035381;28;20322;-64
2023/12/15 00:52:30;;;;;;;32.75;8.60;;;;;;;-145.63;60.38;39024.25;5044887;28;20025;-64
2023/12/15 00:54:55;;;;;;;22.08;7.25;;;;;;;-145.63;60.13;38998.81;5044526;28;20040;-64
2023/12/15 00:57:21;;;;;;;26.17;7.85;;;;;;;-145.63;60.05;38977.31;5029619;28;20030;-64
2023/12/15 00:59:47;;;;;;;30.23;8.02;;;;;;;-145.63;60.00;38979.28;5034891;28;20064;-63
2023/12/15 01:02:12;;;;;;;26.83;8.18;;;;;;;-145.63;60.17;39026.19;5038278;28;20184;-64
2023/12/15 01:04:38;;;;;;;26.00;8.23;;;;;;;-145.63;60.32;39018.38;5038646;28;20018;-63
2023/12/15 01:07:04;;;;;;;33.97;9.00;;;;;;;-145.63;60.19;39000.78;5026742;28;20218;-64
2023/12/15 01:09:29;;;;;;;27.17;8.80;;;;;;;-145.63;60.01;39012.50;5044266;28;20049;-64
2023/12/15 01:11:55;;;;;;;21.08;7.50;;;;;;;-145.63;60.10;38992.97;5044337;28;20097;-63
2023/12/15 01:14:21;;;;;;;17.35;6.72;;;;;;;-145.63;60.26;39000.78;5043049;28;20069;-65
2023/12/15 01:16:48;;;;;;;30.23;8.75;;;;;;;-145.63;60.17;39012.50;5043877;28;20464;-63
2023/12/15 01:19:15;;;;;;;34.53;8.52;;;;;;;-145.63;60.07;39041.84;5030163;28;20032;-62
2023/12/15 01:21:41;;;;;;;28.00;8.07;;;;;;;-145.63;60.01;38971.44;5032148;28;20034;-64
2023/12/15 01:24:07;;;;;;;32.58;8.38;;;;;;;-145.63;59.77;38996.88;5028837;28;20059;-62
2023/12/15 01:26:33;;;;;;;30.63;7.97;;;;;;;-145.63;60.14;38965.56;5043746;28;20259;-62
2023/12/15 01:28:58;;;;;;;32.45;8.50;;;;;;;-145.63;59.70;39006.66;5024264;28;20052;-63
2023/12/15 01:31:24;;;;;;;30.63;8.38;;;;;;;-145.63;59.41;39012.50;5039108;28;20034;-63
2023/12/15 01:33:50;;;;;;;25.10;7.63;;;;;;;-145.63;59.45;38991.00;5033262;28;20032;-63
2023/12/15 01:36:18;;;;;;;21.13;7.78;;;;;;;-145.63;59.84;38989.03;5029587;28;20036;-63
2023/12/15 01:38:44;;;;;;;30.00;9.57;;;;;;;-145.63;59.14;39006.66;5026541;28;20064;-63
2023/12/15 01:41:10;;;;;;;28.80;9.00;;;;;;;-145.63;59.59;39024.25;5023838;28;20030;-63
2023/12/15 01:43:36;;;;;;;28.08;8.40;;;;;;;-145.63;59.57;39012.50;5040557;28;20025;-63
2023/12/15 01:46:02;;;;;;;21.13;6.55;;;;;;;-145.63;59.28;38979.28;5031729;28;20326;-63
2023/12/15 01:48:29;;;;;;;23.75;7.63;;;;;;;-145.63;59.67;39014.47;5030987;28;20305;-61
2023/12/15 01:50:55;;;;;;;31.60;7.80;;;;;;;-145.63;59.90;38983.19;5040770;28;20033;-63
2023/12/15 01:53:21;;;;;;;25.08;7.15;;;;;;;-145.63;59.57;39016.44;5023784;28;20068;-63
2023/12/15 01:55:47;;;;;;;28.90;7.53;;;;;;;-145.63;59.61;39012.50;5041393;28;20025;-63
2023/12/15 01:58:13;;;;;;;33.92;7.13;;;;;;;-145.63;59.39;39004.69;5042962;28;20284;-63
2023/12/15 02:00:39;;;;;;;26.08;7.40;;;;;;;-145.63;59.55;38992.97;5034489;28;20061;-64
2023/12/15 02:03:05;;;;;;;25.63;6.90;;;;;;;-145.63;59.49;39000.78;5027484;28;20029;-62
2023/12/15 02:05:31;;;;;;;22.05;6.20;;;;;;;-145.63;59.52;39022.28;5043409;28;20071;-61
2023/12/15 02:07:56;;;;;;;29.65;6.47;;;;;;;-145.63;59.21;39014.47;5037720;28;20021;-62
2023/12/15 02:10:22;;;;;;;26.98;6.82;;;;;;;-145.63;59.27;38987.09;5043351;28;20040;-63
2023/12/15 02:12:48;;;;;;;29.65;7.07;;;;;;;-145.63;59.42;39053.59;5033314;28;20108;-63
2023/12/15 02:15:14;;;;;;;24.42;7.25;;;;;;;-145.63;59.30;38998.81;5028419;28;20021;-64
2023/12/15 02:17:39;;;;;;;31.67;8.80;;;;;;;-145.63;59.41;39002.72;5042451;28;20045;-62
2023/12/15 02:20:06;;;;;;;31.27;7.20;;;;;;;-145.63;58.86;39024.25;5023381;28;20049;-64
2023/12/15 02:22:32;;;;;;;37.22;7.10;;;;;;;-145.63;58.92;38983.19;5039225;28;20030;-63
2023/12/15 02:24:58;;;;;;;27.73;7.18;;;;;;;-145.63;58.35;39016.44;5031987;28;20065;-62
2023/12/15 02:27:24;;;;;;;31.27;6.95;;;;;;;-145.63;58.75;38996.88;5029536;28;20217;-61
2023/12/15 02:29:50;;;;;;;28.90;6.57;;;;;;;-145.63;58.78;38963.63;5041182;28;20049;-62
2023/12/15 02:32:16;;;;;;;25.85;6.90;;;;;;;-145.63;58.29;38992.97;5023294;28;20238;-62
2023/12/15 02:34:41;;;;;;;19.95;6.80;;;;;;;-145.63;58.72;39014.47;5040064;28;20037;-61
2023/12/15 02:37:07;;;;;;;32.38;6.80;;;;;;;-145.63;58.20;38992.97;5030535;28;20080;-61
2023/12/15 02:39:33;;;;;;;30.92;6.72;;;;;;;-145.63;58.60;38801.31;5039934;28;20198;-61
2023/12/15 02:41:59;;;;;;;29.60;7.05;;;;;;;-145.63;58.99;39000.78;5042806;28;20049;-63
2023/12/15 02:44:25;;;;;;;22.63;6.90;;;;;;;-145.63;58.68;39000.78;5042825;28;20032;-64
2023/12/15 02:46:50;;;;;;;29.55;7.90;;;;;;;-145.63;58.59;39012.50;5024673;28;20303;-63
2023/12/15 02:49:18;;;;;;;24.58;6.38;;;;;;;-145.63;58.63;39000.78;5036164;28;20318;-61
2023/12/15 02:51:44;;;;;;;29.75;7.40;;;;;;;-145.63;58.54;39020.34;5033673;28;20025;-62
2023/12/15 02:54:10;;;;;;;30.48;7.40;;;;;;;-145.63;58.22;39000.78;5027220;28;20021;-63
2023/12/15 02:56:36;;;;;;;24.52;7.85;;;;;;;-145.63;58.19;39000.78;5042662;28;20033;-63
2023/12/15 02:59:03;;;;;;;34.47;7.57;;;;;;;-145.63;57.78;39008.59;5042787;28;20092;-62
2023/12/15 03:01:29;;;;;;;25.60;7.53;;;;;;;-145.63;57.75;39022.28;5026268;28;20022;-64
2023/12/15 03:03:55;;;;;;;28.25;7.30;;;;;;;-145.63;57.23;39010.56;5033089;28;20104;-63
2023/12/15 03:06:20;;;;;;;31.40;7.97;;;;;;;-145.63;57.26;38996.88;5042336;28;20322;-62
2023/12/15 03:08:46;;;;;;;23.42;7.38;;;;;;;-145.63;57.46;39035.97;5044910;28;20099;-63
2023/12/15 03:11:13;;;;;;;35.13;7.65;;;;;;;-145.63;57.31;39000.78;5046458;28;20025;-62
2023/12/15 03:13:39;;;;;;;31.92;7.93;;;;;;;-145.63;57.04;39008.59;5030398;28;20074;-63
2023/12/15 03:16:11;;;;;;;22.85;6.25;;;;;;;-145.63;57.58;38967.53;5038060;28;20030;-63
2023/12/15 03:18:38;;;;;;;23.63;7.13;;;;;;;-145.63;57.69;38987.09;5038429;28;20037;-63
2023/12/15 03:21:04;;;;;;;30.95;8.40;;;;;;;-145.63;57.62;39014.47;5029750;28;20029;-63
2023/12/15 03:23:30;;;;;;;23.17;7.22;;;;;;;-145.63;58.30;39000.78;5046477;28;20045;-63
2023/12/15 03:25:57;;;;;;;28.65;7.78;;;;;;;-145.63;57.82;38992.97;5027959;28;20230;-63
2023/12/15 03:28:23;;;;;;;34.17;10.27;;;;;;;-145.63;57.57;38996.88;5040142;28;20021;-63
2023/12/15 03:30:48;;;;;;;33.92;8.30;;;;;;;-145.63;57.44;38998.81;5035659;28;20152;-63
2023/12/15 03:33:14;;;;;;;32.17;7.35;;;;;;;-145.63;57.78;38977.31;5029471;28;20032;-63
2023/12/15 03:35:40;;;;;;;27.02;7.40;;;;;;;-145.63;58.03;38989.03;5045956;28;20049;-62
2023/12/15 03:38:06;;;;;;;33.80;9.18;;;;;;;-145.63;57.43;39028.16;5026145;28;20330;-62
2023/12/15 03:40:32;;;;;;;32.80;8.02;;;;;;;-145.63;56.60;39000.78;5041046;28;20206;-62
2023/12/15 03:42:58;;;;;;;27.60;8.48;;;;;;;-145.63;57.36;38977.31;5035444;28;20030;-64
2023/12/15 03:45:25;;;;;;;24.98;7.47;;;;;;;-145.63;57.18;39026.19;5031680;28;20194;-64
2023/12/15 03:47:54;;;;;;;33.00;8.65;;;;;;;-145.63;57.58;39004.69;5044583;28;20048;-65
2023/12/15 03:50:20;;;;;;;28.15;7.25;;;;;;;-145.63;57.22;38969.50;5020394;28;20467;-65
2023/12/15 03:52:46;;;;;;;33.28;7.97;;;;;;;-145.63;57.24;38996.88;5025766;28;20064;-65
2023/12/15 03:55:11;;;;;;;29.45;8.00;;;;;;;-145.63;56.61;38998.81;5037820;28;20326;-64
2023/12/15 03:57:37;;;;;;;35.55;7.43;;;;;;;-145.63;56.43;39014.47;5038239;28;20049;-64
2023/12/15 04:00:03;;;;;;;27.67;7.75;;;;;;;-145.63;57.45;38987.09;5027065;28;20117;-64
2023/12/15 04:02:30;;;;;;;30.45;7.78;;;;;;;-145.63;56.37;38991.00;5025723;28;20028;-64
2023/12/15 04:04:55;;;;;;;26.92;7.60;;;;;;;-145.63;56.19;38985.13;5043654;28;20221;-64
2023/12/15 04:07:21;;;;;;;34.80;7.82;;;;;;;-145.63;56.51;38983.19;5045350;28;20048;-62
2023/12/15 04:09:47;;;;;;;29.95;8.13;;;;;;;-145.63;57.36;38973.41;5036852;28;20021;-63
2023/12/15 04:12:12;;;;;;;28.23;8.52;;;;;;;-145.63;56.45;39000.78;5037636;28;20046;-64
2023/12/15 04:14:38;;;;;;;30.80;7.53;;;;;;;-145.63;56.24;38748.50;5025527;28;20034;-63
2023/12/15 04:17:04;;;;;;;31.17;8.27;;;;;;;-145.63;56.43;38998.81;5026186;28;20066;-65
2023/12/15 04:19:31;;;;;;;32.25;7.70;;;;;;;-145.63;56.51;38987.09;5024407;28;20026;-65
2023/12/15 04:21:56;;;;;;;30.10;8.10;;;;;;;-145.63;56.05;38981.22;5025271;28;20140;-64
2023/12/15 04:24:23;;;;;;;41.35;9.15;;;;;;;-145.63;56.45;39000.78;5030375;28;20093;-64
2023/12/15 04:26:49;;;;;;;33.97;8.43;;;;;;;-145.63;56.12;39000.78;5030061;28;20285;-65
2023/12/15 04:29:14;;;;;;;28.75;8.50;;;;;;;-145.63;56.20;38967.53;5044967;28;20029;-65
2023/12/15 04:31:40;;;;;;;27.27;7.50;;;;;;;-145.63;55.92;38985.13;5029057;28;20456;-61
2023/12/15 04:34:06;;;;;;;30.13;8.73;;;;;;;-145.63;55.66;39008.59;5024984;28;20073;-63
2023/12/15 04:36:32;;;;;;;32.55;8.50;;;;;;;-145.63;55.92;38996.88;5024685;28;20353;-65
2023/12/15 04:38:58;;;;;;;28.23;7.70;;;;;;;-145.63;55.97;39008.59;5026683;28;20101;-64
2023/12/15 04:41:24;;;;;;;32.65;8.63;;;;;;;-145.63;56.42;39002.72;5035333;28;20330;-62
2023/12/15 04:43:50;;;;;;;33.85;9.73;;;;;;;-145.63;56.40;39004.69;5041752;28;20248;-64
2023/12/15 04:46:30;;;;;;;32.67;8.73;;;;;;;-145.63;55.98;39002.72;5032293;28;20029;-63
2023/12/15 04:48:58;;;;;;;28.50;7.68;;;;;;;-145.63;56.46;39016.44;5034367;28;20237;-64
2023/12/15 04:51:24;;;;;;;49.88;20.42;;;;;;;-145.63;56.34;39012.50;5039311;28;20455;-65
2023/12/15 04:53:49;;;;;;;33.85;9.43;;;;;;;-145.63;56.02;39006.66;5025027;28;20287;-66
2023/12/15 04:56:16;;;;;;;30.67;8.85;;;;;;;-145.63;55.92;39030.13;5044368;28;20021;-65
2023/12/15 04:58:42;;;;;;;36.10;8.27;;;;;;;-145.63;55.71;39012.50;5044335;28;20085;-65
2023/12/15 05:01:13;;;;;;;27.48;8.50;;;;;;;-145.63;56.05;38977.31;5033452;28;20321;-65
2023/12/15 05:03:43;;;;;;;35.05;8.82;;;;;;;-145.63;55.53;38807.19;5031456;28;20029;-64
2023/12/15 05:06:20;;;;;;;29.75;8.70;;;;;;;-145.63;55.49;39030.13;5040898;28;20064;-66
2023/12/15 05:08:47;;;;;;;34.47;9.05;;;;;;;-145.63;55.86;38991.00;5050502;28;20265;-65
2023/12/15 05:11:13;;;;;;;31.58;8.32;;;;;;;-145.63;55.38;39049.66;5037235;28;20025;-65
2023/12/15 05:13:39;;;;;;;29.77;7.93;;;;;;;-145.63;55.51;39004.69;5043934;28;20351;-65
2023/12/15 05:16:05;;;;;;;26.60;7.40;;;;;;;-145.63;55.47;38994.91;5043923;28;20041;-64
2023/12/15 05:18:31;;;;;;;28.13;8.70;;;;;;;-145.63;56.26;39008.59;5022800;28;20076;-63
2023/12/15 05:20:57;;;;;;;27.38;7.60;;;;;;;-145.63;55.77;39016.44;5024182;28;20052;-65
2023/12/15 05:23:23;;;;;;;29.13;8.23;;;;;;;-145.63;56.43;39000.78;5023984;28;20030;-64
2023/12/15 05:25:49;;;;;;;26.05;8.85;;;;;;;-145.63;56.23;38815.00;5040243;28;20029;-65
2023/12/15 05:28:15;;;;;;;30.65;8.68;;;;;;;-145.63;55.72;38989.03;5032060;28;20030;-65
2023/12/15 05:30:41;;;;;;;29.80;8.43;;;;;;;-145.63;56.66;38998.81;5030944;28;20069;-65
2023/12/15 05:33:07;;;;;;;30.17;8.73;;;;;;;-145.63;56.42;39006.66;5043874;28;20029;-65
2023/12/15 05:35:36;;;;;;;35.30;8.40;;;;;;;-145.63;56.03;39024.25;5043366;28;20048;-64
2023/12/15 05:38:02;;;;;;;36.28;9.00;;;;;;;-145.63;56.04;39014.47;5025982;28;20041;-65
2023/12/15 05:40:29;;;;;;;27.15;8.18;;;;;;;-145.63;56.09;39006.66;5052584;28;20041;-64
2023/12/15 05:42:54;;;;;;;35.90;9.50;;;;;;;-145.63;56.05;38996.88;5034680;28;20263;-65
2023/12/15 05:45:20;;;;;;;28.42;9.18;;;;;;;-145.63;55.84;39006.66;5027816;28;20021;-64
2023/12/15 05:47:47;;;;;;;35.28;10.07;;;;;;;-145.63;56.03;39049.66;5043846;28;20084;-65
2023/12/15 05:50:12;;;;;;;33.92;8.27;;;;;;;-145.63;56.22;39022.28;5038355;28;20021;-64
2023/12/15 05:52:39;;;;;;;35.08;10.00;;;;;;;-145.63;56.29;39004.69;5028723;28;20258;-64
2023/12/15 05:55:05;;;;;;;33.05;9.52;;;;;;;-145.63;56.05;39012.50;5033429;28;20014;-65
2023/12/15 05:57:31;;;;;;;34.83;10.20;;;;;;;-145.63;56.22;39004.69;5043214;28;20251;-65
2023/12/15 05:59:57;;;;;;;31.90;9.90;;;;;;;-145.63;55.38;38989.03;5042384;28;20140;-66
2023/12/15 06:02:23;;;;;;;30.42;10.07;;;;;;;-145.63;55.87;39012.50;5023488;28;20022;-65
2023/12/15 06:04:48;;;;;;;26.42;9.73;;;;;;;-145.63;55.74;39014.47;5039297;28;20037;-65
2023/12/15 06:07:15;;;;;;;27.70;9.45;;;;;;;-145.63;55.97;39035.97;5043096;28;20068;-65
2023/12/15 06:09:42;;;;;;;33.00;10.45;;;;;;;-145.63;56.52;39006.66;5036302;28;20025;-65
2023/12/15 06:12:09;;;;;;;31.17;10.63;;;;;;;-145.63;56.69;39010.56;5025734;28;20033;-65
2023/12/15 06:14:38;;;;;;;32.65;10.40;;;;;;;-145.63;56.82;39010.56;5043479;28;20096;-64
2023/12/15 06:17:07;;;;;;;31.23;9.40;;;;;;;-145.63;56.74;39006.66;5027044;28;20030;-65
2023/12/15 06:19:33;;;;;;;38.33;10.88;;;;;;;-145.63;56.30;39020.34;5043075;28;20041;-64
2023/12/15 06:22:00;;;;;;;26.05;10.35;;;;;;;-145.63;56.74;38971.44;5033959;28;20338;-65
2023/12/15 06:24:26;;;;;;;33.05;10.65;;;;;;;-145.63;57.69;38502.13;5027744;28;20052;-66
2023/12/15 06:26:52;;;;;;;36.03;10.63;;;;;;;-145.63;57.14;38953.84;5043240;28;20048;-64
2023/12/15 06:29:18;;;;;;;37.30;10.95;;;;;;;-145.63;56.82;38971.44;5023270;28;20030;-64
2023/12/15 06:31:48;;;;;;;35.85;11.60;;;;;;;-145.63;57.06;38949.94;5038149;28;20101;-65
2023/12/15 06:34:13;;;;;;;37.28;11.07;;;;;;;-145.63;56.53;38959.72;5024972;28;20057;-65
2023/12/15 06:36:40;;;;;;;31.83;10.70;;;;;;;-145.63;56.47;38989.03;5036387;28;20194;-64
2023/12/15 06:39:05;;;;;;;35.63;11.40;;;;;;;-145.63;57.03;38901.03;5024540;28;20033;-64
2023/12/15 06:41:31;;;;;;;37.55;10.82;;;;;;;-145.63;57.22;38953.84;5042422;28;20056;-65
2023/12/15 06:43:57;;;;;;;36.08;10.70;;;;;;;-145.63;57.28;38973.41;5025413;28;20056;-64
2023/12/15 06:46:23;;;;;;;29.40;10.52;;;;;;;-145.63;57.60;38959.72;5034765;28;20326;-67
2023/12/15 06:48:48;;;;;;;31.90;10.25;;;;;;;-145.63;56.63;38981.22;5038018;28;20202;-66
2023/12/15 06:51:14;;;;;;;37.83;12.38;;;;;;;-145.63;57.06;38996.88;5039889;28;20038;-65
2023/12/15 06:53:40;;;;;;;34.95;10.95;;;;;;;-145.63;56.70;38985.13;5022969;28;20061;-66
2023/12/15 06:56:06;;;;;;;36.25;10.75;;;;;;;-145.63;56.88;38979.28;5039698;28;20029;-66
2023/12/15 06:58:32;;;;;;;36.33;10.98;;;;;;;-145.63;56.05;38509.97;5042350;28;20026;-66
2023/12/15 07:00:58;;;;;;;30.55;10.38;;;;;;;-145.63;56.09;38979.28;5042385;28;20029;-66
2023/12/15 07:03:23;;;;;;;30.75;10.20;;;;;;;-145.63;56.32;38991.00;5038708;28;20053;-66
2023/12/15 07:05:49;;;;;;;32.95;10.98;;;;;;;-145.63;56.72;38965.56;5036582;28;20289;-67
2023/12/15 07:08:15;;;;;;;36.05;10.60;;;;;;;-145.63;56.23;38991.00;5042390;28;20049;-65
2023/12/15 07:10:41;;;;;;;31.20;9.50;;;;;;;-145.63;56.79;38969.50;5028198;28;20026;-66
2023/12/15 07:13:07;;;;;;;29.38;9.77;;;;;;;-145.63;56.07;38967.53;5032010;28;20044;-67
2023/12/15 07:15:33;;;;;;;32.58;10.65;;;;;;;-145.63;56.68;38973.41;5041529;28;20238;-65
2023/12/15 07:17:59;;;;;;;33.70;10.95;;;;;;;-145.63;55.86;38977.31;5042391;28;20089;-66
2023/12/15 07:20:25;;;;;;;29.05;11.23;;;;;;;-145.63;55.69;38969.50;5038357;28;20018;-67
2023/12/15 07:22:51;;;;;;;36.65;11.60;;;;;;;-145.63;56.17;38983.19;5042328;28;20076;-66
2023/12/15 07:25:18;;;;;;;37.90;12.27;;;;;;;-145.63;55.73;38959.72;5042134;28;20030;-66
2023/12/15 07:27:44;;;;;;;30.85;10.60;;;;;;;-145.63;56.57;38971.44;5040954;28;20045;-66
2023/12/15 07:30:12;;;;;;;36.22;11.38;;;;;;;-145.63;56.91;38969.50;5042313;28;20034;-66
2023/12/15 07:32:38;;;;;;;33.13;10.82;;;;;;;-145.63;56.54;38989.03;5042172;28;20022;-65
2023/12/15 07:35:05;;;;;;;37.67;10.88;;;;;;;-145.63;55.61;38992.97;5040772;28;20072;-66
2023/12/15 07:37:31;;;;;;;28.40;9.73;;;;;;;-145.63;55.86;38973.41;5040928;28;20270;-65
2023/12/15 07:39:57;;;;;;;34.03;11.15;;;;;;;-145.63;55.95;38977.31;5042202;28;20040;-68
2023/12/15 07:42:22;;;;;;;34.05;11.10;;;;;;;-145.63;55.53;38977.31;5038453;28;20022;-66
2023/12/15 07:44:48;;;;;;;38.30;11.13;;;;;;;-145.63;56.03;38969.50;5022458;28;20037;-68
2023/12/15 07:47:14;;;;;;;37.90;10.52;;;;;;;-145.63;56.16;38992.97;5040859;28;20247;-66
2023/12/15 07:49:40;;;;;;;33.95;11.02;;;;;;;-145.63;56.36;38953.84;5032973;28;20045;-65
2023/12/15 07:52:05;;;;;;;32.67;10.02;;;;;;;-145.63;56.68;38951.88;5042009;28;20155;-66
2023/12/15 07:54:31;;;;;;;37.55;12.55;;;;;;;-145.63;57.43;38979.28;5042242;28;20110;-66
2023/12/15 07:56:57;;;;;;;33.10;10.85;;;;;;;-145.63;56.44;39004.69;5045839;28;20021;-66
2023/12/15 07:59:22;;;;;;;38.05;10.13;;;;;;;-145.63;56.45;38985.13;5044085;28;20021;-66
2023/12/15 08:01:50;;;;;;;36.40;10.95;;;;;;;-145.63;55.82;38994.91;5030658;28;20022;-67
2023/12/15 08:04:16;;;;;;;32.00;10.07;;;;;;;-145.63;55.92;38975.34;5034083;28;20088;-66
2023/12/15 08:06:42;;;;;;;35.03;10.57;;;;;;;-145.63;56.78;39000.78;5037658;28;20030;-66
2023/12/15 08:09:08;;;;;;;33.25;11.48;;;;;;;-145.63;57.59;38971.44;5029315;28;20033;-66
2023/12/15 08:11:33;;;;;;;34.33;10.90;;;;;;;-145.63;56.65;38992.97;5041242;28;20029;-66
2023/12/15 08:13:59;;;;;;;38.28;11.07;;;;;;;-145.63;56.60;38957.75;5037143;28;20136;-67
2023/12/15 08:16:25;;;;;;;30.52;10.13;;;;;;;-145.63;56.52;38969.50;5043456;28;20032;-67
2023/12/15 08:18:50;;;;;;;30.52;10.60;;;;;;;-145.63;56.43;38809.13;5037844;28;20030;-66
2023/12/15 08:21:16;;;;;;;28.15;10.73;;;;;;;-145.63;56.98;38981.22;5027450;28;20018;-66
2023/12/15 08:23:42;;;;;;;34.75;10.60;;;;;;;-145.63;56.71;38959.72;5044875;28;20033;-65
2023/12/15 08:26:08;;;;;;;34.00;10.55;;;;;;;-145.63;56.88;38949.94;5031476;28;20025;-67
2023/12/15 08:28:35;;;;;;;36.83;10.93;;;;;;;-145.63;56.88;38985.13;5052699;28;20017;-67
2023/12/15 08:31:01;;;;;;;31.60;10.35;;;;;;;-145.63;57.12;38971.44;5036665;28;20226;-66
2023/12/15 08:33:28;;;;;;;30.17;10.00;;;;;;;-145.63;57.47;38987.09;5026952;28;20060;-66
2023/12/15 08:35:54;;;;;;;39.67;11.13;;;;;;;-145.63;56.82;38963.63;5044866;28;20053;-66
2023/12/15 08:38:19;;;;;;;38.50;11.38;;;;;;;-145.63;57.12;38973.41;5044444;28;20037;-67
2023/12/15 08:40:45;;;;;;;27.40;10.88;;;;;;;-145.63;56.32;38961.66;5030775;28;20043;-66
2023/12/15 08:43:11;;;;;;;41.78;10.93;;;;;;;-145.63;56.89;38998.81;5034737;28;20067;-67
2023/12/15 08:45:36;;;;;;;27.85;10.98;;;;;;;-145.63;57.70;38981.22;5040113;28;20191;-67
2023/12/15 08:48:02;;;;;;;29.20;11.15;;;;;;;-145.63;56.41;38977.31;5024824;28;20326;-66
2023/12/15 08:50:28;;;;;;;31.27;10.35;;;;;;;-145.63;57.76;38963.63;5044569;28;20040;-67
2023/12/15 08:52:54;;;;;;;34.00;12.30;;;;;;;-145.63;57.59;38985.13;5029270;28;20032;-66
2023/12/15 08:55:20;;;;;;;42.03;11.07;;;;;;;-145.63;57.66;38994.91;5035157;28;20029;-66
2023/12/15 08:57:45;;;;;;;39.83;11.73;;;;;;;-145.63;57.05;38998.81;5044247;28;20029;-67
2023/12/15 09:00:11;;;;;;;35.47;10.90;;;;;;;-145.63;57.55;38996.88;5043368;28;20063;-66
2023/12/15 09:02:37;;;;;;;43.22;12.27;;;;;;;-145.63;56.95;39037.94;5024572;28;20029;-65
2023/12/15 09:05:03;;;;;;;33.28;11.02;;;;;;;-145.63;56.93;39000.78;5040805;28;20269;-66
2023/12/15 09:07:30;;;;;;;36.85;12.02;;;;;;;-145.63;57.11;39006.66;5043555;28;20025;-65
2023/12/15 09:09:56;;;;;;;33.60;12.38;;;;;;;-145.63;56.47;39012.50;5036309;28;20557;-65
2023/12/15 09:12:21;;;;;;;35.78;11.25;;;;;;;-145.63;56.16;38992.97;5024451;28;20274;-66
2023/12/15 09:14:47;;;;;;;27.60;10.80;;;;;;;-145.63;56.90;38979.28;5046645;28;20253;-66
2023/12/15 09:17:13;;;;;;;29.30;11.40;;;;;;;-145.63;57.35;38987.09;5040894;28;20450;-66
2023/12/15 09:19:40;;;;;;;28.90;11.60;;;;;;;-145.63;56.20;39051.63;5042842;28;20333;-67
2023/12/15 09:22:06;;;;;;;35.10;11.57;;;;;;;-145.63;57.12;38987.09;5036884;28;20034;-66
2023/12/15 09:24:35;;;;;;;38.03;12.05;;;;;;;-145.63;57.41;39006.66;5025621;28;20029;-66
2023/12/15 09:27:01;;;;;;;37.10;12.32;;;;;;;-145.63;56.95;39018.38;5043562;28;20083;-66
2023/12/15 09:29:28;;;;;;;37.00;11.73;;;;;;;-145.63;57.80;38963.63;5022885;28;20458;-67
2023/12/15 09:31:54;;;;;;;36.97;10.73;;;;;;;-145.63;57.44;39012.50;5038789;28;20272;-66
2023/12/15 09:34:20;;;;;;;26.35;10.60;;;;;;;-145.63;57.29;38992.97;5033624;28;20049;-66
2023/12/15 09:36:46;;;;;;;36.40;12.30;;;;;;;-145.63;57.57;39010.56;5044464;28;20045;-66
2023/12/15 09:39:12;;;;;;;36.72;11.20;;;;;;;-145.63;56.99;39004.69;5043668;28;20097;-66
2023/12/15 09:41:38;;;;;;;38.42;11.10;;;;;;;-145.63;57.05;39032.06;5043665;28;20032;-66
2023/12/15 09:44:04;;;;;;;36.08;12.27;;;;;;;-145.63;57.45;38979.28;5027527;28;20029;-67
2023/12/15 09:46:31;;;;;;;33.00;11.57;;;;;;;-145.63;57.17;39026.19;5035054;28;20235;-66
2023/12/15 09:48:57;;;;;;;43.55;11.80;;;;;;;-145.63;56.72;39008.59;5040649;28;20026;-66
2023/12/15 09:51:25;;;;;;;36.47;12.02;;;;;;;-145.63;57.66;38998.81;5040601;28;20071;-66
2023/12/15 09:53:52;;;;;;;34.03;11.85;;;;;;;-145.63;57.69;38991.00;5023737;28;20036;-67
2023/12/15 09:56:18;;;;;;;40.40;11.55;;;;;;;-145.63;57.58;39024.25;5041812;28;20021;-66
2023/12/15 09:58:44;;;;;;;35.25;11.50;;;;;;;-145.63;57.13;39000.78;5043088;28;20025;-66
2023/12/15 10:01:11;;;;;;;32.80;11.40;;;;;;;-145.63;57.22;39020.34;5034820;28;20033;-67
2023/12/15 10:03:37;;;;;;;38.42;12.10;;;;;;;-145.63;56.89;39008.59;5026352;28;20025;-67
2023/12/15 10:06:03;;;;;;;44.13;13.15;;;;;;;-145.63;57.20;38985.13;5042684;28;20348;-65
2023/12/15 10:08:40;;;;;;;39.22;12.57;;;;;;;-145.63;56.94;39028.16;5036268;28;20124;-66
2023/12/15 10:11:05;;;;;;;32.80;12.07;;;;;;;-145.63;57.77;38992.97;5030106;28;20033;-67
2023/12/15 10:13:31;;;;;;;29.13;11.25;;;;;;;-145.63;56.23;39024.25;5034432;28;20025;-66
2023/12/15 10:15:57;;;;;;;27.33;11.00;;;;;;;-145.63;57.25;39035.97;5036332;28;20210;-66
2023/12/15 10:18:23;;;;;;;35.70;10.80;;;;;;;-145.63;56.84;39010.56;5024355;28;20213;-66
2023/12/15 10:20:49;;;;;;;41.97;12.32;;;;;;;-145.63;56.45;39020.34;5042775;28;20029;-67
2023/12/15 10:23:15;;;;;;;34.30;10.43;;;;;;;-145.63;56.43;39045.75;5028205;28;20097;-67
2023/12/15 10:25:48;;;;;;;35.83;11.18;;;;;;;-145.63;56.23;39041.84;5029617;28;20599;-67
2023/12/15 10:28:15;;;;;;;44.45;10.27;;;;;;;-145.63;56.99;39086.81;5031491;28;20029;-69
2023/12/15 10:30:41;;;;;;;34.92;10.15;;;;;;;-145.63;56.67;39045.75;5041304;28;20041;-67
2023/12/15 10:33:07;;;;;;;44.65;11.32;;;;;;;-145.63;57.06;39063.34;5041970;28;20071;-68
2023/12/15 10:35:36;;;;;;;32.88;9.98;;;;;;;-145.63;56.23;39079.00;5041527;28;20198;-67
2023/12/15 10:38:03;;;;;;;33.22;9.52;;;;;;;-145.63;56.20;39039.88;5056514;28;20087;-67
2023/12/15 10:40:29;;;;;;;32.58;10.18;;;;;;;-145.63;55.91;39051.63;5040607;28;20042;-69
2023/12/15 10:42:57;;;;;;;30.15;9.43;;;;;;;-145.63;55.42;39065.31;5040473;28;20052;-66
2023/12/15 10:45:23;;;;;;;29.80;9.02;;;;;;;-145.63;55.88;39055.53;5040562;28;20040;-66
2023/12/15 10:47:50;;;;;;;32.67;9.60;;;;;;;-145.63;56.77;39024.25;5041413;28;20337;-66
2023/12/15 10:50:16;;;;;;;26.55;8.32;;;;;;;-145.63;56.11;39049.66;5033246;28;20038;-67
2023/12/15 10:52:44;;;;;;;37.58;9.00;;;;;;;-145.63;55.92;39079.00;5030389;28;20034;-66
2023/12/15 10:55:13;;;;;;;31.77;9.55;;;;;;;-145.63;56.01;39055.53;5028278;28;20022;-67
2023/12/15 10:57:39;;;;;;;39.78;10.32;;;;;;;-145.63;54.90;39037.94;5064863;28;20033;-68
2023/12/15 11:00:05;;;;;;;34.15;8.23;;;;;;;-145.63;55.33;39000.78;5041899;28;20191;-67
2023/12/15 11:02:37;;;;;;;24.08;8.23;;;;;;;-145.63;55.93;39049.66;5041847;28;20033;-67